createdAt,value
2023-06-02T00:02:17.674Z,54.40
2023-06-02T00:04:46.238Z,53.60
2023-06-02T00:07:14.662Z,53.00
2023-06-02T00:09:44.635Z,54.10
2023-06-02T00:12:13.318Z,58.90
2023-06-02T00:14:41.869Z,61.80
2023-06-02T00:17:11.646Z,63.60
2023-06-02T00:19:40.131Z,65.30
2023-06-02T00:22:08.878Z,60.50
2023-06-02T00:24:37.322Z,57.50
2023-06-02T00:27:05.823Z,56.10
2023-06-02T00:29:34.473Z,55.40
2023-06-02T00:32:02.834Z,55.00
2023-06-02T00:34:31.313Z,60.90
2023-06-02T00:36:59.723Z,63.50
2023-06-02T00:43:18.864Z,66.10
2023-06-02T00:45:47.009Z,67.50
2023-06-02T00:48:15.428Z,64.60
2023-06-02T00:50:45.163Z,61.50
2023-06-02T00:55:10.143Z,62.10
2023-06-02T00:57:38.728Z,66.70
2023-06-02T01:00:07.535Z,68.90
2023-06-02T01:02:36.076Z,70.50
2023-06-02T01:05:07.174Z,64.80
2023-06-02T01:07:37.339Z,62.30
2023-06-02T01:10:06.097Z,60.70
2023-06-02T01:12:34.890Z,59.50
2023-06-02T01:15:05.769Z,59.20
2023-06-02T01:17:34.432Z,64.90
2023-06-02T01:20:07.143Z,67.10
2023-06-02T01:23:06.881Z,69.70
2023-06-02T01:25:38.562Z,71.40
2023-06-02T01:28:07.700Z,67.40
2023-06-02T01:30:37.155Z,62.90
2023-06-02T01:33:13.231Z,60.60
2023-06-02T01:35:49.220Z,59.90
2023-06-02T01:38:19.352Z,65.70
2023-06-02T01:40:48.909Z,67.70
2023-06-02T01:43:19.874Z,69.20
2023-06-02T01:45:49.297Z,70.00
2023-06-02T01:48:17.694Z,68.90
2023-06-02T01:50:46.200Z,62.90
2023-06-02T01:53:14.721Z,60.80
2023-06-02T01:55:44.091Z,58.20
2023-06-02T01:58:12.272Z,62.50
2023-06-02T02:00:40.666Z,65.50
2023-06-02T02:03:09.328Z,67.50
2023-06-02T02:05:37.683Z,69.10
2023-06-02T02:08:06.490Z,70.20
2023-06-02T02:10:34.351Z,66.00
2023-06-02T02:13:02.701Z,61.20
2023-06-02T02:15:31.288Z,58.90
2023-06-02T02:18:01.291Z,62.40
2023-06-02T02:20:29.991Z,65.90
2023-06-02T02:22:58.053Z,68.10
2023-06-02T02:25:26.653Z,69.90
2023-06-02T02:27:55.237Z,71.50
2023-06-02T02:30:23.527Z,68.20
2023-06-02T02:32:52.126Z,62.30
2023-06-02T02:35:20.628Z,59.70
2023-06-02T02:37:49.339Z,59.30
2023-06-02T02:40:21.706Z,64.80
2023-06-02T02:42:50.172Z,67.50
2023-06-02T02:45:18.857Z,69.20
2023-06-02T02:47:48.314Z,70.30
2023-06-02T02:50:16.901Z,70.30
2023-06-02T02:52:46.520Z,63.40
2023-06-02T02:55:16.281Z,60.50
2023-06-02T02:57:44.771Z,58.50
2023-06-02T03:00:13.509Z,64.30
2023-06-02T03:02:43.519Z,66.60
2023-06-02T03:05:11.736Z,68.20
2023-06-02T03:07:40.588Z,69.70
2023-06-02T03:10:10.309Z,70.80
2023-06-02T03:12:38.512Z,66.60
2023-06-02T03:15:07.761Z,61.30
2023-06-02T03:18:41.151Z,58.00
2023-06-02T03:21:11.260Z,63.40
2023-06-02T03:23:40.672Z,66.10
2023-06-02T03:26:09.288Z,68.10
2023-06-02T03:28:37.508Z,69.40
2023-06-02T03:31:06.209Z,70.60
2023-06-02T03:33:34.485Z,64.10
2023-06-02T03:36:03.292Z,60.40
2023-06-02T03:38:32.365Z,58.40
2023-06-02T03:41:00.897Z,61.30
2023-06-02T03:43:29.404Z,65.00
2023-06-02T03:45:59.007Z,66.90
2023-06-02T03:48:27.591Z,68.30
2023-06-02T03:50:56.090Z,69.80
2023-06-02T03:53:24.259Z,67.80
2023-06-02T03:55:53.158Z,61.80
2023-06-02T03:58:21.742Z,59.30
2023-06-02T04:00:50.162Z,62.70
2023-06-02T04:03:19.587Z,66.10
2023-06-02T04:05:49.216Z,67.70
2023-06-02T04:08:18.315Z,69.90
2023-06-02T04:10:46.632Z,70.60
2023-06-02T04:13:15.101Z,70.80
2023-06-02T04:15:44.241Z,63.20
2023-06-02T04:18:12.867Z,60.30
2023-06-02T04:20:41.355Z,60.00
2023-06-02T04:23:10.648Z,65.20
2023-06-02T04:28:52.503Z,68.70
2023-06-02T04:31:21.025Z,69.20
2023-06-02T04:33:49.416Z,65.30
2023-06-02T04:36:18.485Z,60.60
2023-06-02T04:44:02.089Z,62.80
2023-06-02T04:46:31.086Z,65.00
2023-06-02T04:48:59.666Z,67.20
2023-06-02T04:51:28.558Z,65.80
2023-06-02T04:53:57.308Z,60.70
2023-06-02T04:56:29.424Z,58.20
2023-06-02T04:58:58.255Z,59.80
2023-06-02T05:01:26.854Z,64.60
2023-06-02T05:03:56.133Z,66.60
2023-06-02T05:06:24.239Z,68.30
2023-06-02T05:08:53.120Z,69.70
2023-06-02T05:11:21.285Z,70.50
2023-06-02T05:13:49.847Z,64.30
2023-06-02T05:16:18.514Z,61.00
2023-06-02T05:18:47.079Z,58.90
2023-06-02T05:21:16.040Z,64.50
2023-06-02T05:23:44.470Z,67.00
2023-06-02T05:26:13.451Z,68.70
2023-06-02T05:28:42.443Z,69.80
2023-06-02T05:31:11.021Z,70.70
2023-06-02T05:33:40.056Z,70.50
2023-06-02T05:36:08.407Z,63.30
2023-06-02T05:38:37.132Z,60.30
2023-06-02T05:41:05.944Z,62.50
2023-06-02T05:43:34.438Z,67.10
2023-06-02T05:46:03.304Z,68.80
2023-06-02T05:48:32.520Z,69.90
2023-06-02T05:51:01.822Z,71.20
2023-06-02T05:53:32.182Z,72.90
2023-06-02T05:56:01.372Z,68.70
2023-06-02T05:58:30.710Z,63.30
2023-06-02T06:00:59.902Z,60.50
2023-06-02T06:03:28.379Z,64.90
2023-06-02T06:05:57.257Z,68.00
2023-06-02T06:08:25.567Z,69.90
2023-06-02T06:10:54.185Z,70.90
2023-06-02T06:13:22.399Z,72.40
2023-06-02T06:15:51.512Z,71.50
2023-06-02T06:18:20.415Z,63.90
2023-06-02T06:20:49.793Z,61.20
2023-06-02T06:23:18.435Z,62.20
2023-06-02T06:25:48.520Z,67.10
2023-06-02T06:28:17.689Z,69.30
2023-06-02T06:30:46.211Z,71.20
2023-06-02T06:33:14.866Z,72.00
2023-06-02T06:35:43.392Z,72.30
2023-06-02T06:38:12.863Z,64.80
2023-06-02T06:40:41.607Z,61.70
2023-06-02T06:43:22.764Z,62.20
2023-06-02T06:46:01.715Z,66.90
2023-06-02T06:48:30.541Z,69.50
2023-06-02T06:50:58.946Z,71.10
2023-06-02T06:53:28.418Z,72.10
2023-06-02T06:55:57.005Z,73.70
2023-06-02T06:58:25.354Z,72.40
2023-06-02T07:00:53.781Z,66.10
2023-06-02T07:03:22.399Z,63.40
2023-06-02T07:05:50.816Z,63.90
2023-06-02T07:08:19.266Z,68.80
2023-06-02T07:10:47.836Z,71.30
2023-06-02T07:13:16.857Z,73.30
2023-06-02T07:15:45.238Z,74.50
2023-06-02T07:18:14.008Z,69.70
2023-06-02T07:20:42.043Z,64.80
2023-06-02T07:23:10.399Z,62.70
2023-06-02T07:25:38.847Z,65.10
2023-06-02T07:28:07.226Z,69.60
2023-06-02T07:30:35.545Z,71.80
2023-06-02T07:33:03.976Z,72.10
2023-06-02T07:35:32.527Z,74.30
2023-06-02T07:38:01.050Z,70.70
2023-06-02T07:40:29.504Z,65.10
2023-06-02T07:45:31.070Z,65.90
2023-06-02T07:47:59.599Z,69.40
2023-06-02T07:50:28.299Z,71.70
2023-06-02T07:52:56.879Z,72.70
2023-06-02T07:55:25.106Z,73.90
2023-06-02T07:57:53.716Z,71.50
2023-06-02T08:00:22.105Z,65.70
2023-06-02T08:02:50.277Z,63.00
2023-06-02T08:05:18.683Z,63.40
2023-06-02T08:07:46.803Z,68.60
2023-06-02T08:10:15.008Z,70.40
2023-06-02T08:12:43.174Z,72.20
2023-06-02T08:15:11.635Z,73.40
2023-06-02T08:17:40.432Z,74.70
2023-06-02T08:20:08.948Z,70.90
2023-06-02T08:22:37.159Z,65.60
2023-06-02T08:25:07.342Z,64.60
2023-06-02T08:27:35.514Z,62.60
2023-06-02T08:30:03.535Z,62.70
2023-06-02T08:32:31.727Z,68.00
2023-06-02T08:35:01.635Z,70.80
2023-06-02T08:37:30.045Z,73.00
2023-06-02T08:39:58.099Z,74.60
2023-06-02T08:42:27.579Z,75.50
2023-06-02T08:44:55.978Z,70.60
2023-06-02T08:47:27.661Z,66.60
2023-06-02T08:49:56.246Z,64.20
2023-06-02T08:52:25.094Z,62.20
2023-06-02T08:54:53.272Z,68.20
2023-06-02T08:57:21.524Z,70.30
2023-06-02T08:59:49.994Z,71.70
2023-06-02T09:02:18.681Z,72.80
2023-06-02T09:04:46.846Z,74.10
2023-06-02T09:07:15.049Z,69.90
2023-06-02T09:09:47.432Z,65.20
2023-06-02T09:12:15.677Z,63.00
2023-06-02T09:14:43.595Z,63.00
2023-06-02T09:17:27.154Z,68.40
2023-06-02T09:19:57.231Z,70.20
2023-06-02T09:22:25.496Z,71.70
2023-06-02T09:24:54.357Z,73.10
2023-06-02T09:27:22.334Z,74.20
2023-06-02T09:29:52.914Z,74.10
2023-06-02T09:32:21.692Z,66.90
2023-06-02T09:34:49.740Z,63.60
2023-06-02T09:37:19.094Z,61.90
2023-06-02T09:39:48.542Z,67.40
2023-06-02T09:42:20.297Z,71.00
2023-06-02T09:45:07.887Z,72.50
2023-06-02T09:47:40.334Z,74.00
2023-06-02T09:50:09.894Z,75.00
2023-06-02T09:52:38.443Z,67.80
2023-06-02T09:55:08.211Z,64.10
2023-06-02T09:57:36.775Z,62.00
2023-06-02T10:00:06.114Z,64.80
2023-06-02T10:02:40.288Z,68.90
2023-06-02T10:05:08.696Z,70.70
2023-06-02T10:07:47.881Z,71.90
2023-06-02T10:10:19.165Z,72.80
2023-06-02T10:13:02.634Z,71.10
2023-06-02T10:15:44.516Z,65.10
2023-06-02T10:18:29.558Z,62.70
2023-06-02T10:21:00.755Z,63.30
2023-06-02T10:23:29.105Z,68.60
2023-06-02T10:25:57.337Z,71.00
2023-06-02T10:28:28.035Z,72.30
2023-06-02T10:31:14.349Z,73.40
2023-06-02T10:33:46.601Z,74.20
2023-06-02T10:36:15.012Z,66.50
2023-06-02T10:38:42.902Z,63.50
2023-06-02T10:41:11.107Z,62.10
2023-06-02T10:43:39.424Z,66.40
2023-06-02T10:46:17.999Z,69.30
2023-06-02T10:48:46.113Z,71.10
2023-06-02T10:51:14.373Z,72.70
2023-06-02T10:54:00.773Z,72.90
2023-06-02T10:56:38.054Z,71.60
2023-06-02T10:59:06.703Z,65.20
2023-06-02T11:01:53.462Z,62.60
2023-06-02T11:04:28.340Z,61.90
2023-06-02T11:07:16.147Z,67.70
2023-06-02T11:09:44.608Z,70.10
2023-06-02T11:12:13.435Z,72.00
2023-06-02T11:14:59.892Z,73.40
2023-06-02T11:17:34.660Z,71.80
2023-06-02T11:20:06.346Z,65.20
2023-06-02T11:22:34.787Z,63.00
2023-06-02T11:25:03.681Z,61.60
2023-06-02T11:27:45.261Z,62.30
2023-06-02T11:30:20.375Z,67.60
2023-06-02T11:32:51.928Z,70.00
2023-06-02T11:35:21.454Z,72.30
2023-06-02T11:38:05.548Z,73.30
2023-06-02T11:40:33.969Z,69.60
2023-06-02T11:43:01.972Z,64.50
2023-06-02T11:45:31.522Z,62.30
2023-06-02T11:48:00.760Z,60.90
2023-06-02T11:50:29.980Z,66.10
2023-06-02T11:52:58.251Z,68.80
2023-06-02T11:55:32.105Z,71.00
2023-06-02T11:58:18.939Z,71.90
2023-06-02T12:00:49.032Z,71.40
2023-06-02T12:03:17.359Z,64.40
2023-06-02T12:05:47.407Z,62.30
2023-06-02T12:08:20.022Z,60.70
2023-06-02T12:10:48.640Z,60.70
2023-06-02T12:13:26.653Z,65.90
2023-06-02T12:15:55.104Z,68.40
2023-06-02T12:18:33.754Z,69.70
2023-06-02T12:21:02.125Z,71.10
2023-06-02T12:23:43.098Z,67.00
2023-06-02T12:26:11.217Z,62.90
2023-06-02T12:28:39.950Z,60.70
2023-06-02T12:31:08.324Z,59.60
2023-06-02T12:33:36.630Z,64.00
2023-06-02T12:36:04.592Z,66.90
2023-06-02T12:38:35.133Z,68.40
2023-06-02T12:41:04.052Z,70.40
2023-06-02T12:43:33.333Z,71.80
2023-06-02T12:46:01.380Z,71.30
2023-06-02T12:48:32.507Z,64.90
2023-06-02T12:51:01.209Z,62.00
2023-06-02T12:53:29.585Z,60.00
2023-06-02T12:55:57.862Z,64.60
2023-06-02T12:58:26.009Z,67.60
2023-06-02T13:00:54.368Z,69.40
2023-06-02T13:03:22.747Z,71.70
2023-06-02T13:05:57.637Z,72.70
2023-06-02T13:08:27.369Z,69.10
2023-06-02T13:10:56.347Z,64.10
2023-06-02T13:13:27.831Z,61.90
2023-06-02T13:15:56.345Z,60.40
2023-06-02T13:18:24.538Z,65.70
2023-06-02T13:20:52.655Z,68.20
2023-06-02T13:23:20.931Z,69.80
2023-06-02T13:25:49.462Z,71.70
2023-06-02T13:28:17.571Z,72.20
2023-06-02T13:30:45.608Z,65.00
2023-06-02T13:33:13.825Z,62.10
2023-06-02T13:35:42.016Z,60.10
2023-06-02T13:38:10.340Z,59.90
2023-06-02T13:40:38.481Z,65.20
2023-06-02T13:43:07.719Z,68.00
2023-06-02T13:45:35.947Z,68.80
2023-06-02T13:48:04.061Z,71.30
2023-06-02T13:50:32.513Z,68.40
2023-06-02T13:53:00.597Z,64.50
2023-06-02T13:55:28.763Z,62.30
2023-06-02T13:57:56.682Z,61.00
2023-06-02T14:00:24.943Z,59.30
2023-06-02T14:02:53.034Z,61.20
2023-06-02T14:05:21.287Z,65.50
2023-06-02T14:07:49.429Z,67.80
2023-06-02T14:10:17.466Z,69.40
2023-06-02T14:12:46.703Z,71.10
2023-06-02T14:15:16.098Z,68.30
2023-06-02T14:17:44.384Z,62.70
2023-06-02T14:20:12.612Z,60.10
2023-06-02T14:22:40.831Z,58.40
2023-06-02T14:25:09.154Z,63.30
2023-06-02T14:27:39.127Z,66.80
2023-06-02T14:30:09.586Z,68.50
2023-06-02T14:32:37.802Z,70.10
2023-06-02T14:35:06.092Z,71.30
2023-06-02T14:37:34.179Z,67.20
2023-06-02T14:40:02.376Z,62.50
2023-06-02T14:42:30.524Z,60.00
2023-06-02T14:44:58.552Z,62.90
2023-06-02T14:47:28.272Z,67.70
2023-06-02T14:49:56.371Z,70.10
2023-06-02T14:52:24.337Z,71.30
2023-06-02T14:54:52.720Z,73.10
2023-06-02T14:57:21.117Z,66.00
2023-06-02T14:59:49.389Z,62.70
2023-06-02T15:02:19.609Z,61.30
2023-06-02T15:04:49.755Z,60.20
2023-06-02T15:07:17.874Z,66.50
2023-06-02T15:09:45.829Z,69.10
2023-06-02T15:12:14.217Z,70.60
2023-06-02T15:14:42.619Z,72.40
2023-06-02T15:17:11.161Z,66.10
2023-06-02T15:19:39.405Z,62.80
2023-06-02T15:22:07.822Z,60.40
2023-06-02T15:24:36.096Z,59.20
2023-06-02T15:27:04.348Z,63.00
2023-06-02T15:29:32.760Z,66.60
2023-06-02T15:32:01.008Z,69.20
2023-06-02T15:34:32.781Z,70.20
2023-06-02T15:37:00.916Z,71.50
2023-06-02T15:39:29.139Z,64.80
2023-06-02T15:41:57.342Z,61.80
2023-06-02T15:44:25.545Z,61.00
2023-06-02T15:46:53.706Z,61.60
2023-06-02T15:49:25.648Z,60.90
2023-06-02T15:51:54.575Z,58.40
2023-06-02T15:54:22.831Z,59.10
2023-06-02T15:56:54.777Z,58.70
2023-06-02T15:59:23.492Z,62.00
2023-06-02T16:01:52.036Z,66.90
2023-06-02T16:04:20.192Z,69.00
2023-06-02T16:06:49.322Z,71.10
2023-06-02T16:09:18.720Z,68.60
2023-06-02T16:11:46.944Z,63.80
2023-06-02T16:14:15.210Z,60.70
2023-06-02T16:16:43.363Z,64.90
2023-06-02T16:19:11.699Z,68.00
2023-06-02T16:21:40.015Z,69.80
2023-06-02T16:24:08.428Z,71.00
2023-06-02T16:26:36.667Z,72.20
2023-06-02T16:29:06.183Z,72.80
2023-06-02T16:31:34.502Z,69.60
2023-06-02T16:34:02.833Z,63.10
2023-06-02T16:36:31.101Z,61.40
2023-06-02T16:38:59.238Z,65.90
2023-06-02T16:41:27.599Z,68.00
2023-06-02T16:43:56.183Z,70.30
2023-06-02T16:46:24.410Z,71.70
2023-06-02T16:48:52.734Z,72.60
2023-06-02T16:51:20.840Z,67.40
2023-06-02T16:53:49.106Z,61.60
2023-06-02T16:56:17.047Z,61.80
2023-06-02T16:58:45.297Z,65.80
2023-06-02T17:01:13.320Z,68.20
2023-06-02T17:03:41.511Z,70.00
2023-06-02T17:06:09.725Z,71.90
2023-06-02T17:08:37.777Z,72.90
2023-06-02T17:11:06.320Z,67.60
2023-06-02T17:13:34.791Z,62.20
2023-06-02T17:16:06.122Z,62.90
2023-06-02T17:18:34.240Z,66.70
2023-06-02T17:21:02.686Z,69.20
2023-06-02T17:23:31.200Z,71.10
2023-06-02T17:25:59.280Z,72.70
2023-06-02T17:28:27.495Z,74.40
2023-06-02T17:30:55.712Z,66.50
2023-06-02T17:33:24.085Z,62.50
2023-06-02T17:35:52.132Z,63.10
2023-06-02T17:38:20.261Z,66.70
2023-06-02T17:42:36.337Z,69.90
2023-06-02T17:45:05.444Z,71.50
2023-06-02T17:47:33.764Z,73.20
2023-06-02T17:50:02.277Z,67.40
2023-06-02T17:52:30.992Z,62.80
2023-06-02T17:54:59.537Z,62.80
2023-06-02T17:57:27.864Z,66.30
2023-06-02T17:59:56.348Z,68.10
2023-06-02T18:02:24.849Z,68.90
2023-06-02T18:04:53.835Z,69.50
2023-06-02T18:07:22.702Z,69.50
2023-06-02T18:09:51.567Z,67.80
2023-06-02T18:12:20.103Z,61.10
2023-06-02T18:14:50.141Z,58.30
2023-06-02T18:17:19.381Z,63.20
2023-06-02T18:19:50.359Z,65.90
2023-06-02T18:22:18.443Z,67.90
2023-06-02T18:24:46.826Z,69.20
2023-06-02T18:27:15.533Z,69.10
2023-06-02T18:29:43.911Z,63.30
2023-06-02T18:32:15.651Z,58.40
2023-06-02T18:34:44.450Z,61.50
2023-06-02T18:37:12.847Z,64.80
2023-06-02T18:39:47.052Z,68.00
2023-06-02T18:42:15.800Z,68.50
2023-06-02T18:44:44.210Z,68.20
2023-06-02T18:47:13.241Z,61.20
2023-06-02T18:49:41.943Z,57.10
2023-06-02T18:52:10.307Z,61.80
2023-06-02T18:54:38.992Z,65.40
2023-06-02T18:57:07.870Z,67.50
2023-06-02T18:59:36.042Z,68.20
2023-06-02T19:02:05.050Z,68.50
2023-06-02T19:04:33.556Z,61.60
2023-06-02T19:07:02.107Z,57.70
2023-06-02T19:09:30.508Z,60.40
2023-06-02T19:11:58.910Z,63.80
2023-06-02T19:14:27.358Z,66.40
2023-06-02T19:16:56.006Z,68.20
2023-06-02T19:19:24.514Z,68.40
2023-06-02T19:21:52.965Z,63.90
2023-06-02T19:24:23.180Z,58.70
2023-06-02T19:26:52.095Z,57.70
2023-06-02T19:29:20.874Z,63.20
2023-06-02T19:31:49.974Z,65.80
2023-06-02T19:34:18.585Z,67.70
2023-06-02T19:36:46.987Z,68.10
2023-06-02T19:39:15.624Z,63.80
2023-06-02T19:41:44.379Z,58.50
2023-06-02T19:44:12.864Z,58.90
2023-06-02T19:46:41.319Z,63.10
2023-06-02T19:49:09.900Z,65.60
2023-06-02T19:51:38.864Z,67.50
2023-06-02T19:54:07.638Z,67.30
2023-06-02T19:56:37.226Z,64.80
2023-06-02T19:59:05.933Z,59.10
2023-06-02T20:01:34.321Z,56.90
2023-06-02T20:04:02.960Z,62.80
2023-06-02T20:11:00.988Z,67.50
2023-06-02T20:13:32.398Z,67.90
2023-06-02T20:16:01.957Z,64.10
2023-06-02T20:18:32.575Z,59.50
2023-06-02T20:21:01.537Z,59.20
2023-06-02T20:23:29.924Z,64.40
2023-06-02T20:25:58.438Z,66.90
2023-06-02T20:28:26.900Z,69.50
2023-06-02T20:30:55.551Z,70.90
2023-06-02T20:33:27.353Z,70.30
2023-06-02T20:35:57.351Z,63.70
2023-06-02T20:38:26.039Z,59.90
2023-06-02T20:40:54.421Z,63.70
2023-06-02T20:43:23.739Z,66.60
2023-06-02T20:45:52.199Z,68.90
2023-06-02T20:48:21.076Z,70.70
2023-06-02T20:50:49.548Z,71.80
2023-06-02T20:53:18.015Z,68.50
2023-06-02T20:55:47.018Z,62.00
2023-06-02T20:58:17.315Z,59.70
2023-06-02T21:00:45.816Z,65.40
2023-06-02T21:03:14.246Z,68.20
2023-06-02T21:05:43.008Z,70.20
2023-06-02T21:08:11.584Z,71.20
2023-06-02T21:10:39.919Z,71.80
2023-06-02T21:13:08.527Z,66.00
2023-06-02T21:15:36.744Z,61.70
2023-06-02T21:18:06.031Z,63.30
2023-06-02T21:20:35.086Z,67.80
2023-06-02T21:23:04.391Z,69.70
2023-06-02T21:25:34.243Z,71.70
2023-06-02T21:28:04.000Z,72.90
2023-06-02T21:30:33.008Z,73.60
2023-06-02T21:33:01.679Z,66.70
2023-06-02T21:35:30.086Z,62.60
2023-06-02T21:37:59.897Z,63.00
2023-06-02T21:40:28.078Z,67.40
2023-06-02T21:42:56.682Z,69.70
2023-06-02T21:45:25.065Z,71.20
2023-06-02T21:47:53.720Z,73.00
2023-06-02T21:50:22.954Z,74.40
2023-06-02T21:52:51.438Z,67.30
2023-06-02T21:55:20.996Z,62.60
2023-06-02T21:57:49.819Z,64.50
2023-06-02T22:00:18.497Z,68.20
2023-06-02T22:02:47.165Z,70.10
2023-06-02T22:05:15.990Z,71.60
2023-06-02T22:07:44.928Z,73.10
2023-06-02T22:10:14.910Z,70.60
2023-06-02T22:12:43.300Z,64.10
2023-06-02T22:15:12.406Z,61.20
2023-06-02T22:17:40.932Z,65.90
2023-06-02T22:20:11.177Z,68.80
2023-06-02T22:22:39.558Z,70.70
2023-06-02T22:25:08.616Z,72.10
2023-06-02T22:27:37.228Z,73.00
2023-06-02T22:30:05.767Z,68.10
2023-06-02T22:32:34.466Z,63.60
2023-06-02T22:35:03.295Z,61.10
2023-06-02T22:37:31.604Z,67.20
2023-06-02T22:40:00.671Z,69.90
2023-06-02T22:42:31.846Z,71.00
2023-06-02T22:45:00.786Z,72.80
2023-06-02T22:47:29.345Z,74.20
2023-06-02T22:49:57.792Z,66.50
2023-06-02T22:52:26.657Z,63.00
2023-06-02T22:54:57.151Z,61.00
2023-06-02T22:57:26.329Z,66.70
2023-06-02T22:59:57.182Z,69.60
2023-06-02T23:02:26.080Z,71.10
2023-06-02T23:04:54.518Z,72.20
2023-06-02T23:07:24.279Z,73.70
2023-06-02T23:09:53.117Z,70.30
2023-06-02T23:12:22.230Z,65.00
2023-06-02T23:14:50.734Z,61.90
2023-06-02T23:17:19.710Z,65.20
2023-06-02T23:19:48.586Z,68.80
2023-06-02T23:22:17.127Z,70.60
2023-06-02T23:24:46.042Z,71.80
2023-06-02T23:27:14.755Z,72.90
2023-06-02T23:29:43.518Z,71.90
2023-06-02T23:32:12.269Z,65.70
2023-06-02T23:34:40.594Z,62.60
2023-06-02T23:37:09.775Z,60.90
2023-06-02T23:39:38.455Z,67.10
2023-06-02T23:42:07.121Z,69.60
2023-06-02T23:44:35.266Z,71.20
2023-06-02T23:47:04.039Z,72.50
2023-06-02T23:49:32.180Z,73.50
2023-06-02T23:52:00.592Z,67.90
2023-06-02T23:54:29.397Z,63.30
2023-06-02T23:56:58.018Z,61.50
2023-06-02T23:59:26.576Z,60.10
